createdAt,value
2023-01-12T00:02:24.951Z,1.00
2023-01-12T00:04:52.941Z,1.00
2023-01-12T00:07:20.848Z,1.00
2023-01-12T00:09:48.473Z,1.00
2023-01-12T00:12:16.387Z,1.00
2023-01-12T00:14:43.867Z,1.00
2023-01-12T00:17:14.628Z,1.00
2023-01-12T00:19:42.035Z,1.00
2023-01-12T00:22:13.272Z,1.00
2023-01-12T00:24:47.049Z,1.00
2023-01-12T00:27:18.035Z,1.00
2023-01-12T00:29:45.908Z,1.00
2023-01-12T00:32:16.549Z,1.00
2023-01-12T00:34:45.306Z,1.00
2023-01-12T00:37:13.309Z,1.00
2023-01-12T00:39:45.875Z,1.00
2023-01-12T00:42:43.155Z,1.00
2023-01-12T00:45:23.295Z,1.00
2023-01-12T00:47:52.180Z,1.00
2023-01-12T00:50:19.905Z,1.00
2023-01-12T00:52:47.615Z,1.00
2023-01-12T00:55:15.102Z,1.00
2023-01-12T00:57:43.371Z,1.00
2023-01-12T01:00:11.575Z,1.00
2023-01-12T01:02:39.725Z,1.00
2023-01-12T01:05:07.516Z,1.00
2023-01-12T01:07:35.150Z,1.00
2023-01-12T01:10:02.617Z,1.00
2023-01-12T01:12:30.331Z,1.00
2023-01-12T01:14:57.701Z,1.00
2023-01-12T01:17:25.655Z,1.00
2023-01-12T01:19:52.881Z,1.00
2023-01-12T01:22:21.541Z,1.00
2023-01-12T01:24:48.935Z,1.00
2023-01-12T01:27:16.606Z,1.00
2023-01-12T01:29:43.933Z,1.00
2023-01-12T01:32:11.641Z,1.00
2023-01-12T01:34:39.824Z,1.00
2023-01-12T01:37:07.579Z,1.00
2023-01-12T01:39:35.279Z,1.00
2023-01-12T01:42:05.085Z,1.00
2023-01-12T01:44:33.149Z,1.00
2023-01-12T01:47:21.986Z,1.00
2023-01-12T01:49:53.905Z,1.00
2023-01-12T01:52:28.571Z,1.00
2023-01-12T01:55:06.789Z,1.00
2023-01-12T01:57:58.817Z,1.00
2023-01-12T02:00:26.752Z,1.00
2023-01-12T02:02:55.890Z,1.00
2023-01-12T02:05:27.097Z,1.00
2023-01-12T02:07:57.323Z,1.00
2023-01-12T02:10:25.013Z,1.00
2023-01-12T02:13:11.078Z,1.00
2023-01-12T02:16:25.857Z,1.00
2023-01-12T02:19:10.466Z,1.00
2023-01-12T02:22:15.471Z,1.00
2023-01-12T02:25:15.437Z,1.00
2023-01-12T02:27:55.170Z,1.00
2023-01-12T02:31:01.274Z,1.00
2023-01-12T02:33:36.770Z,1.00
2023-01-12T02:36:40.078Z,1.00
2023-01-12T02:39:15.030Z,1.00
2023-01-12T02:42:23.024Z,1.00
2023-01-12T02:45:16.099Z,1.00
2023-01-12T02:48:29.198Z,1.00
2023-01-12T02:51:29.370Z,1.00
2023-01-12T02:54:06.973Z,1.00
2023-01-12T02:56:46.003Z,1.00
2023-01-12T02:59:54.286Z,1.00
2023-01-12T03:02:24.578Z,1.00
2023-01-12T03:04:53.259Z,1.00
2023-01-12T03:07:33.889Z,1.00
2023-01-12T03:10:09.765Z,1.00
2023-01-12T03:12:39.083Z,1.00
2023-01-12T03:15:10.861Z,1.00
2023-01-12T03:17:47.625Z,1.00
2023-01-12T03:20:45.976Z,1.00
2023-01-12T03:23:18.779Z,1.00
2023-01-12T03:25:50.956Z,1.00
2023-01-12T03:28:21.410Z,1.00
2023-01-12T03:30:59.891Z,1.00
2023-01-12T03:33:28.116Z,1.00
2023-01-12T03:36:26.307Z,1.00
2023-01-12T03:39:16.145Z,1.00
2023-01-12T03:41:46.769Z,1.00
2023-01-12T03:44:30.614Z,1.00
2023-01-12T03:47:03.421Z,1.00
2023-01-12T03:49:41.769Z,1.00
2023-01-12T03:52:12.216Z,1.00
2023-01-12T03:54:42.295Z,1.00
2023-01-12T03:57:12.440Z,1.00
2023-01-12T03:59:41.914Z,1.00
2023-01-12T04:02:10.115Z,1.00
2023-01-12T04:04:37.824Z,1.00
2023-01-12T04:07:06.678Z,1.00
2023-01-12T04:09:34.315Z,1.00
2023-01-12T04:12:10.892Z,1.00
2023-01-12T04:14:41.379Z,1.00
2023-01-12T04:17:11.880Z,1.00
2023-01-12T04:19:39.892Z,1.00
2023-01-12T04:22:29.178Z,1.00
2023-01-12T04:24:56.545Z,1.00
2023-01-12T04:27:24.715Z,1.00
2023-01-12T04:29:53.842Z,1.00
2023-01-12T04:32:23.052Z,1.00
2023-01-12T04:34:50.885Z,1.00
2023-01-12T04:37:19.508Z,1.00
2023-01-12T04:39:46.798Z,1.00
2023-01-12T04:42:33.652Z,1.00
2023-01-12T04:45:02.721Z,1.00
2023-01-12T04:47:30.909Z,1.00
2023-01-12T04:49:58.510Z,1.00
2023-01-12T04:52:26.319Z,1.00
2023-01-12T04:54:55.625Z,1.00
2023-01-12T04:57:24.650Z,1.00
2023-01-12T04:59:51.987Z,1.00
2023-01-12T05:02:19.765Z,1.00
2023-01-12T05:04:48.421Z,1.00
2023-01-12T05:07:17.815Z,1.00
2023-01-12T05:10:04.177Z,1.00
2023-01-12T05:12:32.584Z,1.00
2023-01-12T05:14:59.992Z,1.00
2023-01-12T05:17:28.800Z,1.00
2023-01-12T05:19:56.263Z,1.00
2023-01-12T05:22:24.135Z,1.00
2023-01-12T05:24:51.560Z,1.00
2023-01-12T05:27:19.547Z,1.00
2023-01-12T05:29:47.273Z,1.00
2023-01-12T05:32:15.976Z,1.00
2023-01-12T05:34:43.472Z,1.00
2023-01-12T05:37:11.661Z,1.00
2023-01-12T05:39:40.357Z,1.00
2023-01-12T05:42:26.734Z,1.00
2023-01-12T05:44:54.272Z,1.00
2023-01-12T05:47:21.849Z,1.00
2023-01-12T05:49:49.244Z,1.00
2023-01-12T05:52:17.072Z,1.00
2023-01-12T05:54:44.306Z,1.00
2023-01-12T05:57:11.972Z,1.00
2023-01-12T05:59:39.457Z,1.00
2023-01-12T06:02:07.107Z,1.00
2023-01-12T06:04:34.614Z,1.00
2023-01-12T06:07:02.339Z,1.00
2023-01-12T06:09:29.866Z,1.00
2023-01-12T06:12:15.877Z,1.00
2023-01-12T06:14:43.315Z,1.00
2023-01-12T06:17:11.155Z,1.00
2023-01-12T06:19:39.123Z,1.00
2023-01-12T06:22:10.347Z,1.00
2023-01-12T06:24:37.771Z,1.00
2023-01-12T06:27:05.328Z,1.00
2023-01-12T06:29:32.723Z,1.00
2023-01-12T06:32:00.535Z,1.00
2023-01-12T06:34:27.860Z,1.00
2023-01-12T06:36:55.473Z,1.00
2023-01-12T06:39:22.794Z,1.00
2023-01-12T06:42:08.805Z,1.00
2023-01-12T06:44:36.220Z,1.00
2023-01-12T06:47:04.576Z,1.00
2023-01-12T06:49:31.859Z,1.00
2023-01-12T06:51:59.437Z,1.00
2023-01-12T06:54:26.843Z,1.00
2023-01-12T06:56:55.863Z,1.00
2023-01-12T06:59:23.288Z,1.00
2023-01-12T07:01:51.120Z,1.00
2023-01-12T07:04:18.730Z,1.00
2023-01-12T07:06:48.392Z,1.00
2023-01-12T07:09:15.916Z,1.00
2023-01-12T07:11:43.903Z,1.00
2023-01-12T07:14:11.280Z,1.00
2023-01-12T07:16:40.349Z,1.00
2023-01-12T07:19:07.674Z,1.00
2023-01-12T07:21:35.423Z,1.00
2023-01-12T07:24:02.952Z,1.00
2023-01-12T07:26:30.822Z,1.00
2023-01-12T07:28:58.148Z,1.00
2023-01-12T07:31:25.820Z,1.00
2023-01-12T07:33:54.105Z,1.00
2023-01-12T07:36:22.911Z,1.00
2023-01-12T07:38:50.318Z,1.00
2023-01-12T07:41:36.495Z,1.00
2023-01-12T07:44:09.877Z,1.00
2023-01-12T07:46:37.728Z,1.00
2023-01-12T07:49:05.056Z,1.00
2023-01-12T07:51:32.695Z,1.00
2023-01-12T07:54:00.209Z,1.00
2023-01-12T07:56:27.874Z,1.00
2023-01-12T07:58:55.178Z,1.00
2023-01-12T08:01:23.095Z,1.00
2023-01-12T08:03:50.645Z,1.00
2023-01-12T08:06:18.667Z,1.00
2023-01-12T08:08:46.192Z,1.00
2023-01-12T08:11:13.917Z,1.00
2023-01-12T08:13:41.371Z,1.00
2023-01-12T08:16:17.221Z,1.00
2023-01-12T08:19:14.581Z,1.00
2023-01-12T08:21:50.975Z,1.00
2023-01-12T08:24:25.639Z,1.00
2023-01-12T08:26:56.669Z,1.00
2023-01-12T08:29:48.599Z,1.00
2023-01-12T08:32:18.899Z,1.00
2023-01-12T08:34:50.398Z,1.00
2023-01-12T08:37:22.502Z,1.00
2023-01-12T08:39:50.955Z,1.00
2023-01-12T08:42:20.509Z,1.00
2023-01-12T08:44:48.640Z,99.90
2023-01-12T08:47:21.798Z,99.90
2023-01-12T08:49:49.358Z,99.90
2023-01-12T08:52:17.333Z,99.90
2023-01-12T08:54:44.926Z,99.90
2023-01-12T08:57:12.957Z,99.90
2023-01-12T08:59:40.565Z,99.90
2023-01-12T09:02:10.797Z,99.90
2023-01-12T09:04:40.454Z,99.90
2023-01-12T09:07:09.559Z,99.90
2023-01-12T09:09:37.271Z,99.90
2023-01-12T09:12:05.614Z,99.90
2023-01-12T09:14:38.961Z,1.00
2023-01-12T09:17:07.696Z,1.00
2023-01-12T09:19:35.207Z,1.00
2023-01-12T09:22:03.004Z,1.00
2023-01-12T09:24:30.563Z,1.00
2023-01-12T09:26:58.361Z,1.00
2023-01-12T09:29:25.920Z,1.00
2023-01-12T09:31:53.501Z,1.00
2023-01-12T09:34:20.879Z,1.00
2023-01-12T09:36:51.371Z,1.00
2023-01-12T09:39:27.487Z,1.00
2023-01-12T09:42:15.294Z,1.00
2023-01-12T09:45:05.797Z,1.00
2023-01-12T09:47:41.320Z,99.90
2023-01-12T09:50:15.168Z,99.90
2023-01-12T09:52:49.323Z,1.00
2023-01-12T09:55:29.867Z,99.90
2023-01-12T09:58:28.951Z,99.90
2023-01-12T10:00:59.733Z,99.90
2023-01-12T10:03:38.916Z,22.00
2023-01-12T10:06:14.794Z,1.00
2023-01-12T10:08:56.954Z,45.00
2023-01-12T10:11:58.290Z,99.90
2023-01-12T10:15:08.276Z,1.00
2023-01-12T10:17:51.649Z,99.90
2023-01-12T10:20:42.019Z,1.00
2023-01-12T10:23:09.430Z,99.90
2023-01-12T10:25:46.066Z,1.00
2023-01-12T10:28:30.315Z,1.00
2023-01-12T10:30:58.861Z,99.90
2023-01-12T10:33:28.774Z,99.90
2023-01-12T10:36:09.967Z,99.90
2023-01-12T10:38:39.754Z,99.90
2023-01-12T10:41:10.288Z,99.90
2023-01-12T10:43:40.582Z,99.90
2023-01-12T10:46:21.495Z,99.90
2023-01-12T10:48:51.307Z,99.90
2023-01-12T10:51:23.271Z,99.90
2023-01-12T10:54:18.159Z,99.90
2023-01-12T10:57:04.079Z,99.90
2023-01-12T10:59:33.890Z,99.90
2023-01-12T11:02:12.091Z,99.90
2023-01-12T11:04:46.436Z,99.90
2023-01-12T11:07:31.109Z,99.90
2023-01-12T11:10:20.060Z,99.90
2023-01-12T11:12:59.066Z,99.90
2023-01-12T11:15:28.681Z,99.90
2023-01-12T11:18:50.645Z,99.90
2023-01-12T11:21:23.127Z,99.90
2023-01-12T11:23:58.198Z,99.90
2023-01-12T11:26:49.471Z,99.90
2023-01-12T11:29:56.487Z,99.90
2023-01-12T11:33:05.230Z,99.90
2023-01-12T11:35:35.653Z,99.90
2023-01-12T11:38:16.442Z,99.90
2023-01-12T11:40:45.285Z,99.90
2023-01-12T11:43:56.247Z,99.90
2023-01-12T11:46:39.606Z,99.90
2023-01-12T11:49:21.506Z,99.90
2023-01-12T11:51:53.688Z,99.90
2023-01-12T11:54:21.429Z,99.90
2023-01-12T11:57:21.473Z,99.90
2023-01-12T12:00:21.477Z,99.90
2023-01-12T12:03:13.030Z,99.90
2023-01-12T12:06:15.277Z,99.90
2023-01-12T12:08:57.648Z,99.90
2023-01-12T12:11:46.135Z,96.60
2023-01-12T12:14:17.257Z,91.50
2023-01-12T12:16:52.914Z,84.00
2023-01-12T12:19:35.700Z,72.90
2023-01-12T12:22:19.631Z,64.20
2023-01-12T12:25:06.089Z,59.60
2023-01-12T12:27:52.652Z,57.70
2023-01-12T12:30:29.632Z,62.60
2023-01-12T12:33:05.654Z,68.40
2023-01-12T12:35:41.472Z,89.10
2023-01-12T12:38:26.794Z,58.50
2023-01-12T12:41:28.650Z,47.70
2023-01-12T12:44:22.332Z,39.60
2023-01-12T12:47:11.534Z,32.00
2023-01-12T12:49:39.868Z,29.60
2023-01-12T12:52:11.715Z,27.40
2023-01-12T12:54:40.685Z,24.60
2023-01-12T12:57:09.140Z,28.20
2023-01-12T12:59:40.708Z,29.50
2023-01-12T13:02:32.319Z,29.60
2023-01-12T13:05:04.854Z,26.90
2023-01-12T13:07:43.517Z,48.20
2023-01-12T13:10:17.605Z,32.90
2023-01-12T13:12:55.447Z,36.60
2023-01-12T13:15:30.252Z,35.40
2023-01-12T13:17:58.359Z,37.80
2023-01-12T13:20:49.672Z,39.60
2023-01-12T13:23:50.710Z,38.30
2023-01-12T13:26:45.306Z,37.30
2023-01-12T13:29:27.777Z,41.90
2023-01-12T13:32:19.951Z,50.30
2023-01-12T13:34:48.099Z,61.60
2023-01-12T13:37:26.135Z,78.40
2023-01-12T13:40:32.564Z,88.00
2023-01-12T13:43:17.029Z,90.70
2023-01-12T13:45:59.931Z,87.30
2023-01-12T13:48:31.053Z,89.70
2023-01-12T13:51:22.304Z,92.70
2023-01-12T13:54:05.058Z,92.50
2023-01-12T13:56:33.594Z,92.90
2023-01-12T13:59:04.205Z,95.80
2023-01-12T14:01:39.053Z,99.10
2023-01-12T14:04:24.074Z,99.10
2023-01-12T14:07:07.673Z,99.90
2023-01-12T14:09:47.595Z,99.90
2023-01-12T14:12:52.211Z,99.90
2023-01-12T14:15:57.585Z,99.90
2023-01-12T14:18:30.971Z,99.90
2023-01-12T14:20:59.537Z,99.90
2023-01-12T14:23:31.171Z,99.90
2023-01-12T14:26:07.809Z,99.90
2023-01-12T14:28:37.243Z,99.90
2023-01-12T14:31:08.979Z,99.90
2023-01-12T14:33:38.813Z,99.90
2023-01-12T14:36:16.639Z,99.90
2023-01-12T14:38:46.123Z,99.90
2023-01-12T14:41:44.637Z,99.90
2023-01-12T14:44:42.622Z,99.90
2023-01-12T14:47:23.741Z,99.90
2023-01-12T14:49:51.893Z,99.90
2023-01-12T14:52:26.285Z,99.90
2023-01-12T14:54:54.168Z,99.90
2023-01-12T14:57:35.139Z,99.90
2023-01-12T15:00:04.959Z,99.90
2023-01-12T15:02:36.021Z,99.90
2023-01-12T15:05:22.844Z,99.90
2023-01-12T15:08:27.227Z,99.90
2023-01-12T15:11:09.358Z,99.90
2023-01-12T15:13:41.826Z,99.90
2023-01-12T15:16:29.614Z,99.90
2023-01-12T15:19:17.662Z,99.90
2023-01-12T15:22:08.573Z,99.90
2023-01-12T15:24:55.064Z,99.90
2023-01-12T15:27:24.705Z,99.90
2023-01-12T15:29:52.713Z,99.90
2023-01-12T15:32:46.396Z,99.90
2023-01-12T15:35:24.145Z,99.90
2023-01-12T15:37:55.582Z,99.90
2023-01-12T15:40:24.707Z,99.90
2023-01-12T15:42:53.471Z,99.90
2023-01-12T15:45:40.282Z,99.90
2023-01-12T15:48:08.644Z,99.90
2023-01-12T15:50:42.409Z,99.90
2023-01-12T15:53:17.333Z,99.90
2023-01-12T15:55:45.175Z,99.90
2023-01-12T15:58:12.840Z,99.90
2023-01-12T16:00:40.699Z,99.90
2023-01-12T16:03:32.153Z,99.90
2023-01-12T16:05:59.791Z,99.90
2023-01-12T16:08:27.508Z,99.90
2023-01-12T16:11:10.081Z,99.90
2023-01-12T16:13:38.972Z,99.90
2023-01-12T16:16:08.293Z,99.90
2023-01-12T16:18:36.015Z,99.90
2023-01-12T16:21:03.470Z,99.90
2023-01-12T16:23:32.105Z,99.90
2023-01-12T16:26:01.687Z,99.90
2023-01-12T16:28:30.258Z,99.90
2023-01-12T16:30:58.117Z,99.90
2023-01-12T16:33:25.900Z,99.90
2023-01-12T16:35:56.649Z,99.90
2023-01-12T16:38:24.536Z,99.90
2023-01-12T16:40:53.984Z,99.90
2023-01-12T16:43:24.477Z,99.90
2023-01-12T16:45:53.246Z,99.90
2023-01-12T16:48:21.408Z,99.90
2023-01-12T16:50:49.211Z,99.90
2023-01-12T16:53:18.546Z,99.50
2023-01-12T16:55:46.607Z,99.20
2023-01-12T16:58:14.385Z,98.80
2023-01-12T17:00:43.257Z,98.50
2023-01-12T17:03:11.400Z,97.80
2023-01-12T17:05:43.369Z,97.90
2023-01-12T17:08:12.259Z,97.40
2023-01-12T17:10:40.206Z,98.10
2023-01-12T17:13:08.247Z,97.90
2023-01-12T17:15:36.173Z,97.10
2023-01-12T17:18:04.456Z,97.10
2023-01-12T17:20:32.436Z,96.80
2023-01-12T17:23:02.050Z,96.20
2023-01-12T17:25:30.088Z,95.90
2023-01-12T17:27:57.926Z,95.50
2023-01-12T17:30:25.998Z,94.70
2023-01-12T17:32:54.219Z,95.40
2023-01-12T17:35:21.676Z,94.90
2023-01-12T17:37:49.527Z,94.70
2023-01-12T17:40:17.088Z,93.90
2023-01-12T17:43:03.253Z,93.70
2023-01-12T17:45:31.129Z,94.80
2023-01-12T17:48:00.377Z,93.70
2023-01-12T17:50:28.561Z,94.60
2023-01-12T17:52:56.357Z,93.80
2023-01-12T17:55:24.717Z,94.30
2023-01-12T17:57:52.449Z,93.20
2023-01-12T18:00:20.871Z,93.20
2023-01-12T18:02:50.729Z,93.50
2023-01-12T18:05:19.147Z,93.70
2023-01-12T18:07:47.428Z,93.40
2023-01-12T18:10:17.417Z,93.80
2023-01-12T18:12:46.494Z,93.80
2023-01-12T18:15:15.352Z,99.90
2023-01-12T18:17:43.898Z,99.90
2023-01-12T18:20:12.876Z,99.90
2023-01-12T18:22:42.752Z,99.90
2023-01-12T18:45:19.604Z,86.70
2023-01-12T18:50:52.857Z,1.00
2023-01-12T18:58:29.831Z,87.80
2023-01-12T19:01:12.214Z,88.80
2023-01-12T19:06:29.271Z,89.20
2023-01-12T19:09:18.428Z,1.00
2023-01-12T19:40:49.263Z,89.10
2023-01-12T20:08:25.374Z,83.70
2023-01-12T20:10:58.709Z,1.00
2023-01-12T20:18:26.159Z,1.00
2023-01-12T20:20:59.580Z,1.00
2023-01-12T20:50:58.983Z,1.00
2023-01-12T21:10:55.595Z,93.80
2023-01-12T21:16:03.120Z,91.60
2023-01-12T21:31:03.089Z,97.30
2023-01-12T21:55:56.904Z,96.70
2023-01-12T21:58:25.921Z,99.90
2023-01-12T23:13:19.474Z,99.90
2023-01-12T23:15:54.572Z,99.90
2023-01-12T23:18:30.877Z,99.90
2023-01-12T23:26:03.156Z,1.00
2023-01-12T23:46:29.585Z,1.00
2023-01-12T23:48:57.951Z,1.00
2023-01-12T23:51:29.518Z,1.00
2023-01-12T23:56:31.120Z,1.00
